Time;durP1;ratioP1;P1;durP2;ratioP2;P2;SDS_P1;SDS_P2;PMS_P1;PMS_P2;Temp;Humidity;BMP_temperature;BMP_pressure;BME280_temperature;BME280_humidity;BME280_pressure;Samples;Min_cycle;Max_cycle;Signal;HPM_P1;HPM_P2
2021/07/21 00:00:39;;;;;;;7.70;4.65;;;;;;;15.54;91.98;94349.22;1627467;87;21074;-53
2021/07/21 00:03:06;;;;;;;7.45;5.17;;;;;;;15.51;91.91;94345.41;1627221;86;21537;-52
2021/07/21 00:05:35;;;;;;;6.95;5.08;;;;;;;15.44;92.12;94350.00;1627599;88;21128;-53
2021/07/21 00:08:03;;;;;;;9.23;5.83;;;;;;;15.47;92.71;94344.09;1629422;87;21435;-53
2021/07/21 00:10:32;;;;;;;6.10;4.55;;;;;;;15.52;92.58;94340.63;1631800;87;21043;-52
2021/07/21 00:18:46;;;;;;;8.88;4.95;;;;;;;15.57;93.15;94342.05;1631725;87;21119;-52
2021/07/21 00:21:05;;;;;;;7.25;5.10;;;;;;;15.57;93.02;94339.28;1601379;87;21073;-52
2021/07/21 00:23:32;;;;;;;6.03;4.92;;;;;;;15.59;93.34;94335.42;1597325;88;20982;-53
2021/07/21 00:25:59;;;;;;;6.20;4.75;;;;;;;15.63;93.23;94338.73;1632583;86;21078;-52
2021/07/21 00:28:26;;;;;;;7.67;4.60;;;;;;;15.69;93.10;94338.15;1626195;88;21098;-51
2021/07/21 00:30:52;;;;;;;8.48;4.85;;;;;;;15.72;92.74;94329.48;1636703;85;21194;-51
2021/07/21 00:33:20;;;;;;;8.03;4.62;;;;;;;15.70;92.55;94324.42;1640039;87;21439;-52
2021/07/21 00:35:47;;;;;;;8.55;4.67;;;;;;;15.70;92.47;94328.58;1626982;87;21013;-51
2021/07/21 00:38:14;;;;;;;11.40;5.53;;;;;;;15.72;92.42;94328.84;1627433;88;21557;-52
2021/07/21 00:40:42;;;;;;;7.70;4.40;;;;;;;15.76;92.52;94332.16;1633091;87;21042;-51
2021/07/21 00:43:09;;;;;;;7.28;4.42;;;;;;;15.82;92.19;94332.98;1634257;85;21212;-52
2021/07/21 00:45:37;;;;;;;7.17;4.35;;;;;;;15.79;91.61;94339.52;1633869;87;21066;-52
2021/07/21 00:48:05;;;;;;;6.97;4.85;;;;;;;15.75;91.64;94338.95;1632095;87;20969;-52
2021/07/21 00:50:32;;;;;;;7.70;5.20;;;;;;;15.74;91.84;94337.44;1634550;87;20974;-51
2021/07/21 00:52:59;;;;;;;12.20;5.58;;;;;;;15.72;91.95;94337.17;1622835;88;21443;-52
2021/07/21 00:55:26;;;;;;;7.37;5.30;;;;;;;15.72;91.84;94328.84;1627927;86;21160;-52
2021/07/21 00:57:56;;;;;;;6.47;4.50;;;;;;;15.69;91.99;94331.22;1628043;87;21026;-52
2021/07/21 01:00:23;;;;;;;7.70;4.90;;;;;;;15.67;92.17;94336.50;1627482;88;21010;-52
2021/07/21 01:02:53;;;;;;;8.23;5.55;;;;;;;15.68;92.15;94338.02;1627561;88;20983;-51
2021/07/21 01:05:30;;;;;;;5.95;4.70;;;;;;;15.66;92.43;94334.97;1627484;88;21462;-52
2021/07/21 01:08:00;;;;;;;8.18;5.85;;;;;;;15.69;92.47;94338.80;1632051;87;21143;-51
2021/07/21 01:10:27;;;;;;;9.23;5.22;;;;;;;15.66;92.29;94334.97;1628262;86;21025;-53
2021/07/21 01:13:17;;;;;;;7.35;5.08;;;;;;;15.66;92.22;94336.36;1627642;86;21066;-52
2021/07/21 01:16:04;;;;;;;7.35;5.20;;;;;;;15.67;92.10;94333.72;1619043;86;21018;-52
2021/07/21 01:18:45;;;;;;;12.13;4.80;;;;;;;15.72;92.06;94323.30;1618644;87;21431;-52
2021/07/21 01:21:37;;;;;;;7.37;4.78;;;;;;;15.72;92.12;94327.45;1633390;87;21148;-52
2021/07/21 01:24:23;;;;;;;5.70;4.92;;;;;;;15.72;92.14;94325.33;1632532;87;21065;-54
2021/07/21 01:27:21;;;;;;;11.12;5.00;;;;;;;15.69;92.29;94321.52;1615616;85;20978;-52
2021/07/21 01:29:54;;;;;;;8.03;4.87;;;;;;;15.71;92.42;94327.33;1635948;87;20983;-51
2021/07/21 01:32:26;;;;;;;7.75;5.17;;;;;;;15.73;92.62;94326.84;1628349;86;21462;-51
2021/07/21 01:34:58;;;;;;;9.47;5.10;;;;;;;15.73;92.50;94322.05;1630234;86;21234;-52
2021/07/21 01:37:25;;;;;;;6.08;4.53;;;;;;;15.72;92.54;94321.91;1628347;87;21070;-52
2021/07/21 01:39:58;;;;;;;4.92;4.42;;;;;;;15.69;92.22;94309.03;1633356;87;21450;-52
2021/07/21 01:42:24;;;;;;;6.17;4.97;;;;;;;15.65;92.11;94308.49;1634456;86;21053;-52
2021/07/21 01:44:51;;;;;;;8.35;4.92;;;;;;;15.65;92.35;94311.27;1610462;87;20978;-52
2021/07/21 01:47:22;;;;;;;5.20;4.70;;;;;;;15.65;92.50;94315.43;1627451;88;21158;-52
2021/07/21 01:49:47;;;;;;;5.85;4.58;;;;;;;15.65;92.35;94310.49;1625106;88;21042;-51
2021/07/21 01:52:16;;;;;;;7.53;4.72;;;;;;;15.64;92.60;94312.52;1629365;87;21014;-53
2021/07/21 01:54:45;;;;;;;6.40;4.35;;;;;;;15.72;92.59;94306.66;1628623;87;21101;-54
2021/07/21 01:57:16;;;;;;;8.88;5.12;;;;;;;15.78;92.14;94310.27;1625765;85;21023;-53
2021/07/21 01:59:44;;;;;;;5.08;4.58;;;;;;;15.80;91.98;94307.75;1629830;87;21165;-51
2021/07/21 02:02:14;;;;;;;4.90;4.37;;;;;;;15.82;91.33;94303.09;1633341;87;21403;-50
2021/07/21 02:04:45;;;;;;;5.20;4.62;;;;;;;15.65;90.54;94303.56;1628480;87;21062;-50
2021/07/21 02:07:12;;;;;;;7.42;5.20;;;;;;;15.65;90.54;94303.56;1631792;87;21019;-51
2021/07/21 02:09:41;;;;;;;8.48;4.30;;;;;;;15.63;91.08;94314.38;1630637;87;21454;-51
2021/07/21 02:12:10;;;;;;;5.55;4.67;;;;;;;15.60;91.24;94309.21;1630726;86;21165;-52
2021/07/21 02:14:37;;;;;;;13.55;5.92;;;;;;;15.58;91.30;94313.72;1631252;85;21554;-51
2021/07/21 02:17:14;;;;;;;11.60;6.92;;;;;;;15.53;91.71;94313.78;1627371;88;21007;-52
2021/07/21 02:19:44;;;;;;;10.03;6.20;;;;;;;15.51;92.07;94313.52;1634117;86;20998;-52
2021/07/21 02:22:22;;;;;;;11.95;6.87;;;;;;;15.52;92.19;94317.81;1635571;87;21057;-53
2021/07/21 02:24:54;;;;;;;9.78;6.97;;;;;;;15.55;92.42;94310.54;1619725;87;21108;-52
2021/07/21 02:27:31;;;;;;;6.70;5.50;;;;;;;15.60;92.90;94311.98;1629266;86;21080;-53
2021/07/21 02:29:58;;;;;;;7.53;4.92;;;;;;;15.65;92.69;94309.88;1636935;87;21021;-52
2021/07/21 02:32:32;;;;;;;6.12;4.45;;;;;;;15.67;92.56;94314.31;1634724;87;21025;-52
2021/07/21 02:34:59;;;;;;;6.03;4.47;;;;;;;15.70;92.32;94316.09;1610790;86;20998;-52
2021/07/21 02:37:28;;;;;;;6.62;4.97;;;;;;;15.71;92.16;94317.62;1637884;86;21186;-52
2021/07/21 02:39:55;;;;;;;7.33;4.60;;;;;;;15.66;92.00;94319.72;1630650;87;21521;-52
2021/07/21 02:42:23;;;;;;;5.78;4.33;;;;;;;15.64;92.22;94316.69;1639936;87;20962;-52
2021/07/21 02:44:51;;;;;;;6.45;4.83;;;;;;;15.62;92.31;94319.19;1629459;87;21022;-52
2021/07/21 02:47:19;;;;;;;9.15;5.12;;;;;;;15.61;92.40;94320.44;1625007;88;21042;-52
2021/07/21 02:49:51;;;;;;;11.78;6.22;;;;;;;15.61;92.74;94312.73;1629218;87;21035;-52
2021/07/21 02:52:41;;;;;;;12.75;5.45;;;;;;;15.63;93.08;94309.61;1637626;86;21025;-52
2021/07/21 02:55:17;;;;;;;9.20;5.70;;;;;;;15.63;92.86;94315.16;1631953;85;21035;-51
2021/07/21 02:57:56;;;;;;;8.05;5.22;;;;;;;15.62;92.99;94314.25;1629683;87;21054;-53
2021/07/21 03:00:28;;;;;;;7.47;5.12;;;;;;;15.64;92.81;94316.69;1629523;87;20967;-52
2021/07/21 03:03:15;;;;;;;11.57;5.35;;;;;;;15.63;92.97;94313.77;1627096;86;21132;-52
2021/07/21 03:05:43;;;;;;;14.83;7.33;;;;;;;15.66;93.13;94314.78;1621854;87;20979;-52
2021/07/21 03:08:12;;;;;;;9.95;6.45;;;;;;;15.70;93.26;94310.55;1630196;87;20978;-53
2021/07/21 03:10:42;;;;;;;8.40;5.87;;;;;;;15.75;92.91;94307.70;1604726;88;21510;-52
2021/07/21 03:13:17;;;;;;;6.83;5.33;;;;;;;15.79;92.78;94301.30;1627221;88;21487;-52
2021/07/21 03:15:58;;;;;;;10.58;6.15;;;;;;;15.85;92.58;94313.20;1626641;88;21133;-52
2021/07/21 03:18:28;;;;;;;10.35;6.10;;;;;;;15.85;91.98;94315.36;1634981;87;21121;-53
2021/07/21 03:20:56;;;;;;;8.28;5.70;;;;;;;15.82;92.16;94322.50;1627121;87;22857;-53
2021/07/21 03:23:27;;;;;;;10.68;5.83;;;;;;;15.78;91.84;94318.59;1627361;88;21073;-52
2021/07/21 03:25:59;;;;;;;11.93;5.70;;;;;;;15.77;91.87;94318.42;1626250;86;21022;-52
2021/07/21 03:28:26;;;;;;;8.33;5.78;;;;;;;15.77;92.12;94317.67;1629698;87;21147;-50
2021/07/21 03:30:55;;;;;;;11.50;6.40;;;;;;;15.80;92.23;94321.63;1635760;87;21912;-50
2021/07/21 03:33:24;;;;;;;10.55;6.62;;;;;;;15.81;92.05;94325.92;1620981;86;21419;-51
2021/07/21 03:35:53;;;;;;;8.65;6.03;;;;;;;15.85;92.24;94328.45;1627992;87;20970;-51
2021/07/21 03:38:22;;;;;;;10.88;6.37;;;;;;;15.91;91.88;94333.45;1636553;86;21009;-51
2021/07/21 03:40:52;;;;;;;9.00;5.40;;;;;;;15.86;91.55;94329.36;1625858;88;21248;-49
2021/07/21 03:43:22;;;;;;;7.45;5.53;;;;;;;15.84;91.91;94327.70;1623228;87;20971;-49
2021/07/21 03:45:58;;;;;;;7.00;5.47;;;;;;;15.84;91.95;94331.09;1633950;86;21517;-50
2021/07/21 03:48:28;;;;;;;7.60;5.03;;;;;;;15.81;91.96;94322.37;1609471;86;21002;-50
2021/07/21 03:51:06;;;;;;;9.28;5.33;;;;;;;15.79;91.81;94322.87;1622229;88;21022;-55
2021/07/21 03:53:35;;;;;;;8.33;5.83;;;;;;;15.77;91.97;94326.74;1628609;87;21241;-62
2021/07/21 03:56:04;;;;;;;7.47;5.33;;;;;;;15.79;92.37;94324.27;1629352;87;20963;-59
2021/07/21 03:58:43;;;;;;;7.67;5.50;;;;;;;15.84;92.35;94333.26;1626466;87;20986;-60
2021/07/21 04:01:12;;;;;;;7.75;5.17;;;;;;;15.91;92.28;94336.22;1626504;86;20982;-54
2021/07/21 04:03:41;;;;;;;10.28;5.87;;;;;;;15.96;92.10;94339.05;1606959;87;21490;-53
2021/07/21 04:06:10;;;;;;;11.25;5.87;;;;;;;15.98;91.92;94336.55;1625434;88;21136;-54
2021/07/21 04:08:51;;;;;;;7.58;5.90;;;;;;;15.99;91.58;94333.13;1603654;88;20974;-52
2021/07/21 04:11:19;;;;;;;8.63;6.67;;;;;;;15.96;91.66;94334.11;1633414;87;20962;-53
2021/07/21 04:13:47;;;;;;;10.10;6.30;;;;;;;15.95;91.86;94333.34;1629826;87;20998;-53
2021/07/21 04:16:15;;;;;;;10.53;5.70;;;;;;;15.98;92.08;94324.67;1631947;86;21021;-52
2021/07/21 04:18:44;;;;;;;9.38;6.00;;;;;;;16.03;92.17;94324.72;1634022;87;20965;-53
2021/07/21 04:21:12;;;;;;;7.80;7.00;;;;;;;16.11;92.22;94333.36;1631781;86;21212;-52
2021/07/21 04:23:40;;;;;;;9.23;7.28;;;;;;;16.17;92.05;94330.77;1626791;87;21018;-55
2021/07/21 04:26:10;;;;;;;7.00;5.90;;;;;;;16.21;91.66;94327.75;1636490;86;21072;-52
2021/07/21 04:28:40;;;;;;;6.83;5.30;;;;;;;16.19;91.46;94331.03;1629069;87;21082;-53
2021/07/21 04:31:08;;;;;;;8.08;5.42;;;;;;;16.16;91.48;94328.47;1640000;87;21155;-53
2021/07/21 04:33:36;;;;;;;6.17;5.05;;;;;;;16.16;91.54;94332.64;1635808;87;21030;-53
2021/07/21 04:36:04;;;;;;;8.98;5.62;;;;;;;16.15;91.75;94324.95;1628454;87;21153;-53
2021/07/21 04:38:31;;;;;;;7.30;6.55;;;;;;;16.17;91.60;94321.05;1629447;87;20979;-53
2021/07/21 04:41:09;;;;;;;8.10;5.45;;;;;;;16.20;91.43;94315.91;1602603;88;21034;-52
2021/07/21 04:43:44;;;;;;;8.00;4.72;;;;;;;16.29;91.46;94315.09;1633369;87;21222;-54
2021/07/21 04:46:13;;;;;;;13.55;7.35;;;;;;;16.42;91.47;94316.09;1625985;87;21423;-54
2021/07/21 04:48:43;;;;;;;6.25;5.65;;;;;;;16.58;91.20;94312.66;1638634;87;21061;-53
2021/07/21 04:51:11;;;;;;;11.35;6.12;;;;;;;16.72;90.49;94322.84;1629832;86;21451;-53
2021/07/21 04:53:38;;;;;;;10.98;5.28;;;;;;;16.81;90.04;94322.63;1629172;86;21029;-57
2021/07/21 04:56:06;;;;;;;10.28;5.20;;;;;;;16.91;89.88;94323.31;1610938;87;39260;-53
2021/07/21 04:58:35;;;;;;;6.40;4.78;;;;;;;17.00;88.55;94324.51;1631946;85;21061;-56
2021/07/21 05:01:03;;;;;;;7.50;5.05;;;;;;;17.02;86.79;94318.44;1626718;88;21010;-53
2021/07/21 05:03:32;;;;;;;7.05;5.67;;;;;;;17.01;86.01;94322.48;1632108;87;21030;-53
2021/07/21 05:06:00;;;;;;;5.85;4.70;;;;;;;16.96;84.86;94322.60;1616853;87;21049;-53
2021/07/21 05:08:28;;;;;;;6.47;5.20;;;;;;;16.96;84.69;94326.00;1606437;85;21200;-53
2021/07/21 05:11:00;;;;;;;7.85;4.95;;;;;;;16.97;84.87;94329.68;1624887;85;21056;-53
2021/07/21 05:13:28;;;;;;;8.10;5.10;;;;;;;16.98;83.58;94326.25;1631607;87;21556;-54
2021/07/21 05:15:55;;;;;;;5.70;4.37;;;;;;;16.97;83.07;94319.95;1639974;87;21065;-53
2021/07/21 05:18:22;;;;;;;8.35;5.87;;;;;;;16.97;83.50;94323.34;1632820;85;20981;-54
2021/07/21 05:20:50;;;;;;;10.68;5.53;;;;;;;16.92;83.24;94327.61;1632043;85;21736;-54
2021/07/21 05:23:19;;;;;;;8.43;6.47;;;;;;;16.93;83.87;94324.96;1637946;87;20978;-53
2021/07/21 05:25:47;;;;;;;8.15;5.37;;;;;;;16.96;84.38;94326.77;1637738;85;21199;-54
2021/07/21 05:28:16;;;;;;;10.15;5.72;;;;;;;16.98;83.91;94332.59;1633108;85;20994;-54
2021/07/21 05:30:43;;;;;;;6.35;5.22;;;;;;;16.97;83.08;94339.41;1662985;85;20993;-54
2021/07/21 05:33:11;;;;;;;9.28;5.25;;;;;;;16.94;82.67;94341.77;1657414;86;21081;-53
2021/07/21 05:35:43;;;;;;;9.33;5.85;;;;;;;16.92;82.58;94331.78;1662334;85;21069;-54
2021/07/21 05:38:12;;;;;;;9.18;5.85;;;;;;;16.91;83.07;94343.41;1649917;85;20969;-56
2021/07/21 05:40:39;;;;;;;7.65;6.00;;;;;;;16.88;82.96;94339.59;1661443;85;21065;-64
2021/07/21 05:43:21;;;;;;;8.45;5.85;;;;;;;16.86;82.80;94342.11;1635891;86;20967;-56
2021/07/21 05:45:50;;;;;;;11.28;7.35;;;;;;;16.87;83.08;94342.89;1644020;85;22086;-55
2021/07/21 05:48:18;;;;;;;13.28;9.80;;;;;;;16.90;83.12;94337.08;1640338;85;21108;-59
2021/07/21 05:50:47;;;;;;;10.13;6.70;;;;;;;16.93;82.92;94340.89;1628031;85;21025;-60
2021/07/21 05:53:13;;;;;;;13.22;8.28;;;;;;;16.96;82.64;94342.67;1639104;84;21089;-56
2021/07/21 05:55:47;;;;;;;13.48;7.58;;;;;;;16.96;82.64;94348.23;1619706;87;21386;-53
2021/07/21 05:58:17;;;;;;;9.05;7.20;;;;;;;16.99;82.52;94347.23;1617962;87;21346;-54
2021/07/21 06:00:44;;;;;;;10.48;7.05;;;;;;;17.01;82.62;94344.71;1585060;87;21167;-53
2021/07/21 06:03:18;;;;;;;8.53;6.10;;;;;;;17.04;82.08;94358.38;1616425;87;21109;-54
2021/07/21 06:05:46;;;;;;;25.37;19.50;;;;;;;17.09;81.86;94362.45;1564002;89;21134;-55
2021/07/21 06:08:31;;;;;;;21.80;16.62;;;;;;;17.10;82.21;94361.19;1527906;92;21302;-54
2021/07/21 06:10:59;;;;;;;17.15;12.23;;;;;;;17.11;82.46;94358.55;1578500;87;21262;-54
2021/07/21 06:13:26;;;;;;;14.98;10.75;;;;;;;17.14;82.42;94368.66;1601442;87;21069;-58
2021/07/21 06:15:55;;;;;;;17.35;12.37;;;;;;;17.16;82.48;94364.13;1636633;85;21482;-65
2021/07/21 06:18:22;;;;;;;32.55;20.15;;;;;;;17.17;82.22;94364.88;1636387;86;21019;-55
2021/07/21 06:20:50;;;;;;;12.43;8.90;;;;;;;17.13;81.77;94367.89;1636624;85;21092;-61
2021/07/21 06:23:17;;;;;;;7.90;6.83;;;;;;;17.08;81.54;94365.10;1627204;85;21138;-58
2021/07/21 06:25:47;;;;;;;9.05;5.67;;;;;;;17.05;81.76;94376.58;1640462;85;21066;-57
2021/07/21 06:28:16;;;;;;;8.53;6.15;;;;;;;17.04;82.16;94368.11;1638802;85;21542;-65
2021/07/21 06:30:43;;;;;;;9.48;6.70;;;;;;;17.01;82.53;94368.33;1642073;86;21032;-58
2021/07/21 06:33:19;;;;;;;9.38;6.12;;;;;;;17.00;83.17;94368.20;1629904;86;21133;-57
2021/07/21 06:35:45;;;;;;;9.28;7.12;;;;;;;16.97;83.07;94369.98;1636706;86;21188;-57
2021/07/21 06:38:13;;;;;;;8.58;6.00;;;;;;;16.96;83.67;94367.69;1644956;84;21522;-59
2021/07/21 06:40:42;;;;;;;8.38;6.05;;;;;;;17.02;84.07;94361.52;1647917;85;21072;-60
2021/07/21 06:43:09;;;;;;;6.87;5.75;;;;;;;17.09;84.00;94360.42;1639662;85;21088;-59
2021/07/21 06:45:37;;;;;;;8.83;6.42;;;;;;;17.14;83.81;94361.09;1629908;85;21017;-59
2021/07/21 06:48:09;;;;;;;10.28;8.15;;;;;;;17.19;83.98;94361.74;1609043;87;21353;-56
2021/07/21 06:50:38;;;;;;;11.55;7.10;;;;;;;17.18;83.69;94363.00;1637082;85;21109;-59
2021/07/21 06:53:05;;;;;;;9.68;7.87;;;;;;;17.17;83.74;94367.05;1649519;86;21478;-74
2021/07/21 06:55:52;;;;;;;14.83;10.90;;;;;;;17.14;84.17;94370.83;1640464;85;21112;-64
2021/07/21 06:58:19;;;;;;;8.78;7.25;;;;;;;17.14;84.20;94370.05;1635653;85;20940;-61
2021/07/21 07:00:48;;;;;;;13.15;10.30;;;;;;;17.14;84.57;94362.48;1637356;84;21318;-63
2021/07/21 07:03:18;;;;;;;11.93;7.45;;;;;;;17.14;84.49;94361.71;1644885;85;21062;-62
2021/07/21 07:05:44;;;;;;;10.43;6.58;;;;;;;17.17;84.44;94357.93;1640335;85;21164;-59
2021/07/21 07:08:20;;;;;;;9.85;8.35;;;;;;;17.19;84.66;94366.53;1592503;85;21743;-57
2021/07/21 07:11:00;;;;;;;9.28;6.10;;;;;;;17.23;84.68;94371.22;1604936;86;21064;-61
2021/07/21 07:13:27;;;;;;;15.85;14.20;;;;;;;17.28;85.39;94369.11;1645963;85;21557;-65
2021/07/21 07:15:55;;;;;;;12.30;8.68;;;;;;;17.34;85.68;94373.47;1646929;86;21094;-58
2021/07/21 07:18:21;;;;;;;12.93;7.20;;;;;;;17.38;85.92;94370.44;1635497;85;21014;-60
2021/07/21 07:20:48;;;;;;;10.30;6.92;;;;;;;17.43;86.34;94375.27;1641196;86;21088;-60
2021/07/21 07:23:15;;;;;;;11.05;6.87;;;;;;;17.44;86.37;94372.62;1636895;86;21076;-59
2021/07/21 07:25:42;;;;;;;20.70;13.75;;;;;;;17.45;86.77;94379.70;1642000;85;21147;-57
2021/07/21 07:28:09;;;;;;;10.70;8.08;;;;;;;17.44;87.02;94376.80;1645483;85;20992;-58
2021/07/21 07:30:36;;;;;;;11.08;7.70;;;;;;;17.46;87.37;94372.23;1643532;85;21251;-64
2021/07/21 07:33:03;;;;;;;10.93;8.83;;;;;;;17.50;87.62;94370.61;1645921;85;21012;-63
2021/07/21 07:35:30;;;;;;;14.20;7.60;;;;;;;17.53;87.96;94376.56;1635725;85;21171;-61
2021/07/21 07:37:58;;;;;;;8.95;6.45;;;;;;;17.57;87.98;94375.68;1642884;85;21539;-62
2021/07/21 07:40:25;;;;;;;12.43;7.33;;;;;;;17.64;88.17;94372.44;1655755;85;21060;-56
2021/07/21 07:42:51;;;;;;;14.43;8.95;;;;;;;17.73;88.15;94370.80;1640193;85;21108;-55
2021/07/21 07:45:18;;;;;;;11.00;8.95;;;;;;;17.82;87.69;94367.16;1635499;85;21577;-64
2021/07/21 07:47:46;;;;;;;9.75;7.90;;;;;;;17.91;86.61;94378.07;1640470;85;21309;-61
2021/07/21 07:50:12;;;;;;;9.38;6.85;;;;;;;18.00;86.31;94381.25;1658586;85;21974;-60
2021/07/21 07:52:40;;;;;;;10.48;7.28;;;;;;;18.09;86.62;94379.61;1657274;85;21172;-56
2021/07/21 07:55:09;;;;;;;8.13;5.70;;;;;;;18.13;86.59;94382.90;1632355;85;21052;-58
2021/07/21 07:57:36;;;;;;;12.73;7.00;;;;;;;18.13;86.55;94386.45;1642737;85;21116;-60
2021/07/21 08:00:07;;;;;;;13.45;8.43;;;;;;;18.07;86.38;94389.88;1636315;85;21053;-63
2021/07/21 08:02:37;;;;;;;7.05;5.58;;;;;;;18.02;86.76;94392.64;1632111;86;21213;-59
2021/07/21 08:05:04;;;;;;;8.85;6.67;;;;;;;18.02;87.10;94395.42;1621034;83;35375;-61
2021/07/21 08:07:35;;;;;;;10.45;6.40;;;;;;;18.01;87.10;94403.00;1624053;87;21013;-62
2021/07/21 08:10:02;;;;;;;9.80;6.53;;;;;;;18.01;87.44;94405.04;1619917;86;21037;-64
2021/07/21 08:12:29;;;;;;;9.40;6.78;;;;;;;18.06;87.35;94405.67;1616796;86;21489;-63
2021/07/21 08:14:56;;;;;;;7.67;6.37;;;;;;;18.11;87.30;94402.91;1622268;87;21114;-64
2021/07/21 08:17:23;;;;;;;6.37;5.62;;;;;;;18.18;86.17;94403.80;1612290;86;21486;-64
2021/07/21 08:19:50;;;;;;;8.10;6.12;;;;;;;18.23;85.82;94407.98;1574768;89;21181;-67
2021/07/21 08:22:18;;;;;;;13.22;7.17;;;;;;;18.26;86.03;94409.76;1606627;88;21235;-60
2021/07/21 08:24:44;;;;;;;10.13;6.50;;;;;;;18.30;86.32;94404.72;1603734;86;21041;-63
2021/07/21 08:27:11;;;;;;;8.03;5.50;;;;;;;18.27;86.05;94404.34;1609251;86;21818;-58
2021/07/21 08:29:39;;;;;;;7.72;6.35;;;;;;;18.23;86.03;94411.39;1607496;87;21076;-60
2021/07/21 08:32:07;;;;;;;8.60;6.00;;;;;;;18.16;85.61;94402.80;1606586;88;21028;-59
2021/07/21 08:34:34;;;;;;;11.18;6.35;;;;;;;18.11;84.87;94409.88;1603221;88;21168;-59
2021/07/21 08:37:03;;;;;;;11.15;8.35;;;;;;;18.08;84.00;94405.93;1600361;88;21093;-56
2021/07/21 08:39:30;;;;;;;13.72;7.72;;;;;;;18.01;83.75;94416.92;1601992;86;21597;-61
2021/07/21 08:41:59;;;;;;;10.85;6.75;;;;;;;17.97;84.54;94430.33;1602846;87;21811;-57
2021/07/21 08:44:26;;;;;;;8.80;6.12;;;;;;;17.97;85.12;94429.59;1595066;88;21604;-57
2021/07/21 08:46:55;;;;;;;7.47;5.83;;;;;;;17.93;84.53;94426.27;1595392;86;21050;-58
2021/07/21 08:49:21;;;;;;;9.53;5.75;;;;;;;17.85;84.20;94428.02;1578432;87;21104;-67
2021/07/21 08:51:50;;;;;;;7.95;6.25;;;;;;;17.81;84.58;94437.25;1597635;88;21529;-59
2021/07/21 08:54:17;;;;;;;8.73;7.08;;;;;;;17.79;84.40;94443.30;1601063;88;22290;-54
2021/07/21 08:56:45;;;;;;;7.62;6.17;;;;;;;17.76;84.94;94444.92;1602761;87;21064;-52
2021/07/21 08:59:16;;;;;;;6.58;5.12;;;;;;;17.76;86.13;94451.88;1604280;86;22164;-61
2021/07/21 09:01:43;;;;;;;6.00;5.03;;;;;;;17.80;85.21;94455.21;1608894;87;21088;-60
2021/07/21 09:04:11;;;;;;;7.40;5.58;;;;;;;17.84;85.30;94452.30;1609131;87;22051;-60
2021/07/21 09:06:39;;;;;;;8.73;6.15;;;;;;;17.82;85.27;94463.81;1597829;87;21088;-59
2021/07/21 09:09:06;;;;;;;8.83;5.67;;;;;;;17.80;85.55;94466.34;1617906;87;21071;-61
2021/07/21 09:11:36;;;;;;;4.70;4.20;;;;;;;17.85;85.98;94463.55;1596469;87;21152;-61
2021/07/21 09:14:04;;;;;;;6.47;5.78;;;;;;;17.92;85.30;94469.28;1590199;87;21131;-62
2021/07/21 09:16:31;;;;;;;7.83;6.08;;;;;;;17.96;84.78;94477.52;1620911;87;21762;-56
2021/07/21 09:18:58;;;;;;;7.70;6.17;;;;;;;17.98;84.83;94483.35;1613197;86;21781;-60
2021/07/21 09:21:26;;;;;;;12.78;9.05;;;;;;;18.01;84.22;94474.64;1609056;87;22304;-63
2021/07/21 09:23:57;;;;;;;12.73;8.58;;;;;;;18.01;82.46;94479.56;1629010;86;21045;-58
2021/07/21 09:26:29;;;;;;;13.08;9.88;;;;;;;18.03;81.92;94480.46;1631022;86;21088;-59
2021/07/21 09:28:59;;;;;;;;;;;;;;;18.04;81.60;94486.16;1609866;87;21151;-60
2021/07/21 09:31:40;;;;;;;14.33;10.23;;;;;;;18.01;79.71;94472.59;1573748;89;20191;-63
2021/07/21 09:34:16;;;;;;;14.98;9.33;;;;;;;17.96;80.10;94497.02;1616348;87;21527;-65
2021/07/21 09:36:43;;;;;;;11.18;9.90;;;;;;;17.90;79.25;94489.89;1600141;87;21013;-62
2021/07/21 09:39:12;;;;;;;13.00;9.98;;;;;;;17.87;79.18;94495.08;1611171;87;21068;-57
2021/07/21 09:41:51;;;;;;;15.95;12.33;;;;;;;17.90;79.54;94496.85;1609416;87;21405;-62
2021/07/21 09:44:41;;;;;;;13.58;11.48;;;;;;;17.92;79.75;94504.07;1572502;88;22249;-60
2021/07/21 09:47:15;;;;;;;15.40;10.93;;;;;;;17.92;80.36;94499.89;1595721;88;21589;-57
2021/07/21 09:49:43;;;;;;;10.43;8.98;;;;;;;17.95;80.68;94505.84;1597676;87;21285;-63
2021/07/21 09:52:21;;;;;;;11.30;9.05;;;;;;;17.93;80.84;94505.59;1582590;88;21075;-57
2021/07/21 09:55:13;;;;;;;10.23;9.23;;;;;;;17.93;79.56;94501.42;1620851;87;21209;-58
2021/07/21 09:57:40;;;;;;;9.38;8.13;;;;;;;17.97;80.18;94503.35;1592347;88;22642;-62
2021/07/21 10:00:27;;;;;;;12.40;9.70;;;;;;;17.99;78.32;94505.00;1597989;87;21078;-63
2021/07/21 10:03:22;;;;;;;10.10;8.50;;;;;;;17.98;79.10;94509.80;1599895;87;21017;-62
2021/07/21 10:06:02;;;;;;;12.40;8.60;;;;;;;17.98;80.42;94509.05;1593991;88;21072;-61
2021/07/21 10:08:44;;;;;;;12.23;8.50;;;;;;;18.05;80.56;94518.30;1598829;88;21246;-61
2021/07/21 10:11:30;;;;;;;12.18;9.70;;;;;;;18.11;80.37;94512.11;1553251;89;21153;-59
2021/07/21 10:14:09;;;;;;;13.80;9.68;;;;;;;18.10;79.76;94522.51;1604128;86;21082;-59
2021/07/21 10:16:52;;;;;;;8.85;7.85;;;;;;;18.01;79.83;94505.26;1595984;88;21140;-59
2021/07/21 10:19:26;;;;;;;10.28;7.97;;;;;;;17.98;80.30;94513.97;1596037;88;21098;-56
2021/07/21 10:22:03;;;;;;;9.58;8.38;;;;;;;17.96;80.49;94519.90;1565811;89;21687;-68
2021/07/21 10:24:34;;;;;;;11.95;9.08;;;;;;;17.90;80.58;94526.08;1638785;86;21064;-56
2021/07/21 10:27:03;;;;;;;11.83;9.75;;;;;;;17.85;80.45;94533.14;1633033;86;21136;-57
2021/07/21 10:29:30;;;;;;;7.60;6.85;;;;;;;17.83;81.20;94540.48;1634939;85;21124;-56
2021/07/21 10:31:57;;;;;;;6.10;5.42;;;;;;;17.76;79.37;94536.76;1631249;85;21072;-61
2021/07/21 10:34:24;;;;;;;10.30;8.88;;;;;;;17.74;80.67;94541.45;1634317;86;21400;-57
2021/07/21 10:36:51;;;;;;;8.83;7.75;;;;;;;17.70;81.18;94542.94;1609151;86;21005;-57
2021/07/21 10:39:31;;;;;;;9.53;8.63;;;;;;;17.68;82.22;94548.23;1601221;88;21077;-56
2021/07/21 10:42:04;;;;;;;11.08;7.92;;;;;;;17.72;82.52;94544.58;1605084;88;21033;-57
2021/07/21 10:44:31;;;;;;;11.38;7.28;;;;;;;17.80;83.18;94554.75;1603800;88;21089;-59
2021/07/21 10:47:03;;;;;;;7.17;6.45;;;;;;;17.81;83.44;94551.35;1599128;88;21162;-56
2021/07/21 10:49:31;;;;;;;8.50;7.00;;;;;;;17.80;83.13;94556.79;1603905;87;21112;-59
2021/07/21 10:55:08;;;;;;;7.85;6.58;;;;;;;17.82;81.00;94555.66;1627904;87;21116;-60
2021/07/21 11:00:42;;;;;;;6.28;5.55;;;;;;;17.70;81.13;94554.06;1632115;87;21534;-57
2021/07/21 11:03:25;;;;;;;10.23;7.78;;;;;;;17.66;81.09;94564.67;1624801;88;21098;-63
2021/07/21 11:06:04;;;;;;;9.80;8.80;;;;;;;17.60;80.86;94561.84;1624329;88;21089;-63
2021/07/21 11:08:31;;;;;;;10.68;7.87;;;;;;;17.56;81.66;94575.84;1629135;86;20980;-58
2021/07/21 11:11:05;;;;;;;11.55;9.10;;;;;;;17.54;83.50;94570.80;1639808;85;21131;-56
2021/07/21 11:13:37;;;;;;;8.33;6.05;;;;;;;17.52;84.03;94576.09;1630329;86;22375;-62
2021/07/21 11:16:05;;;;;;;7.45;6.55;;;;;;;17.52;82.92;94583.05;1641552;86;21187;-61
2021/07/21 11:18:43;;;;;;;8.75;6.97;;;;;;;17.52;82.62;94583.67;1630188;87;21107;-62
2021/07/21 11:21:16;;;;;;;5.90;5.30;;;;;;;17.56;81.97;94580.02;1604985;87;21027;-56
2021/07/21 11:23:55;;;;;;;6.30;5.60;;;;;;;17.60;81.57;94590.28;1600364;87;21052;-62
2021/07/21 11:26:43;;;;;;;6.55;5.50;;;;;;;17.66;80.77;94587.67;1606137;87;21079;-62
2021/07/21 11:29:33;;;;;;;10.35;8.13;;;;;;;17.79;81.80;94593.59;1609322;87;21025;-57
2021/07/21 11:32:00;;;;;;;9.85;7.85;;;;;;;17.83;83.07;94590.58;1600529;87;21092;-63
2021/07/21 11:34:39;;;;;;;9.55;6.50;;;;;;;17.86;84.07;94590.97;1629489;87;21401;-63
2021/07/21 11:37:16;;;;;;;9.45;7.45;;;;;;;17.92;83.74;94590.36;1608668;87;21122;-56
2021/07/21 11:39:54;;;;;;;11.75;7.70;;;;;;;17.95;84.44;94591.53;1609684;87;21874;-57
2021/07/21 11:42:30;;;;;;;9.83;7.28;;;;;;;17.93;83.16;94589.87;1616348;87;21478;-66
2021/07/21 11:45:15;;;;;;;12.53;8.55;;;;;;;17.96;82.36;94595.05;1631592;85;21338;-62
2021/07/21 11:48:00;;;;;;;10.48;8.08;;;;;;;18.00;83.85;94599.14;1633543;85;21138;-58
2021/07/21 11:50:32;;;;;;;11.53;10.05;;;;;;;18.00;79.47;94594.22;1627437;84;22259;-56
2021/07/21 11:53:02;;;;;;;13.62;11.85;;;;;;;18.02;79.79;94594.48;1601089;87;21166;-57
2021/07/21 11:55:32;;;;;;;13.83;12.03;;;;;;;18.08;79.44;94596.03;1625114;87;21180;-53
2021/07/21 11:58:11;;;;;;;12.37;10.82;;;;;;;18.17;81.01;94602.77;1612898;87;21103;-57